sensor_id;sensor_type;location;lat;lon;timestamp;P1;durP1;ratioP1;P2;durP2;ratioP2
36351;SDS011;22382;44.768;17.206;2023-01-09T00:02:14;4.03;;;2.08;;
36351;SDS011;22382;44.768;17.206;2023-01-09T00:04:41;3.60;;;2.22;;
36351;SDS011;22382;44.768;17.206;2023-01-09T00:07:08;4.57;;;2.30;;
36351;SDS011;22382;44.768;17.206;2023-01-09T00:09:35;3.65;;;2.42;;
36351;SDS011;22382;44.768;17.206;2023-01-09T00:12:03;3.15;;;2.10;;
36351;SDS011;22382;44.768;17.206;2023-01-09T00:14:30;4.65;;;1.90;;
36351;SDS011;22382;44.768;17.206;2023-01-09T00:16:57;3.70;;;2.53;;
36351;SDS011;22382;44.768;17.206;2023-01-09T00:19:24;4.07;;;2.42;;
36351;SDS011;22382;44.768;17.206;2023-01-09T00:21:51;2.88;;;2.05;;
36351;SDS011;22382;44.768;17.206;2023-01-09T00:24:18;3.17;;;2.22;;
36351;SDS011;22382;44.768;17.206;2023-01-09T00:26:45;3.78;;;1.90;;
36351;SDS011;22382;44.768;17.206;2023-01-09T00:29:12;3.17;;;1.90;;
36351;SDS011;22382;44.768;17.206;2023-01-09T00:31:39;3.15;;;2.10;;
36351;SDS011;22382;44.768;17.206;2023-01-09T00:34:06;2.85;;;2.13;;
36351;SDS011;22382;44.768;17.206;2023-01-09T00:36:35;3.50;;;2.30;;
36351;SDS011;22382;44.768;17.206;2023-01-09T00:39:03;4.32;;;2.58;;
36351;SDS011;22382;44.768;17.206;2023-01-09T00:41:41;3.72;;;2.72;;
36351;SDS011;22382;44.768;17.206;2023-01-09T00:44:19;7.05;;;4.10;;
36351;SDS011;22382;44.768;17.206;2023-01-09T00:46:50;8.07;;;4.78;;
36351;SDS011;22382;44.768;17.206;2023-01-09T00:49:21;11.43;;;6.07;;
36351;SDS011;22382;44.768;17.206;2023-01-09T00:51:48;11.00;;;5.95;;
36351;SDS011;22382;44.768;17.206;2023-01-09T00:54:17;13.20;;;7.55;;
36351;SDS011;22382;44.768;17.206;2023-01-09T00:56:45;11.25;;;6.22;;
36351;SDS011;22382;44.768;17.206;2023-01-09T00:59:13;13.82;;;7.30;;
36351;SDS011;22382;44.768;17.206;2023-01-09T01:01:40;11.63;;;6.43;;
36351;SDS011;22382;44.768;17.206;2023-01-09T01:04:07;9.73;;;5.03;;
36351;SDS011;22382;44.768;17.206;2023-01-09T01:06:57;8.40;;;4.85;;
36351;SDS011;22382;44.768;17.206;2023-01-09T01:09:43;8.52;;;5.35;;
36351;SDS011;22382;44.768;17.206;2023-01-09T01:12:10;8.52;;;4.13;;
36351;SDS011;22382;44.768;17.206;2023-01-09T01:14:37;6.70;;;4.43;;
36351;SDS011;22382;44.768;17.206;2023-01-09T01:17:05;7.93;;;5.20;;
36351;SDS011;22382;44.768;17.206;2023-01-09T01:19:33;8.48;;;4.80;;
36351;SDS011;22382;44.768;17.206;2023-01-09T01:22:01;8.48;;;4.95;;
36351;SDS011;22382;44.768;17.206;2023-01-09T01:24:28;9.40;;;5.85;;
36351;SDS011;22382;44.768;17.206;2023-01-09T01:26:56;11.27;;;6.55;;
36351;SDS011;22382;44.768;17.206;2023-01-09T01:29:23;12.77;;;7.72;;
36351;SDS011;22382;44.768;17.206;2023-01-09T01:31:50;12.63;;;7.95;;
36351;SDS011;22382;44.768;17.206;2023-01-09T01:34:17;17.55;;;10.80;;
36351;SDS011;22382;44.768;17.206;2023-01-09T01:36:44;22.25;;;11.20;;
36351;SDS011;22382;44.768;17.206;2023-01-09T01:39:11;17.27;;;9.82;;
36351;SDS011;22382;44.768;17.206;2023-01-09T01:41:39;17.00;;;9.13;;
36351;SDS011;22382;44.768;17.206;2023-01-09T01:44:53;17.50;;;8.55;;
36351;SDS011;22382;44.768;17.206;2023-01-09T01:47:11;18.23;;;9.55;;
36351;SDS011;22382;44.768;17.206;2023-01-09T01:49:39;17.20;;;9.60;;
36351;SDS011;22382;44.768;17.206;2023-01-09T01:52:06;15.70;;;9.38;;
36351;SDS011;22382;44.768;17.206;2023-01-09T01:54:34;17.58;;;10.43;;
36351;SDS011;22382;44.768;17.206;2023-01-09T01:57:01;21.20;;;11.65;;
36351;SDS011;22382;44.768;17.206;2023-01-09T02:02:16;20.30;;;11.18;;
36351;SDS011;22382;44.768;17.206;2023-01-09T02:04:46;17.73;;;10.82;;
36351;SDS011;22382;44.768;17.206;2023-01-09T02:07:16;20.17;;;12.57;;
36351;SDS011;22382;44.768;17.206;2023-01-09T02:09:43;21.65;;;11.15;;
36351;SDS011;22382;44.768;17.206;2023-01-09T02:12:17;19.48;;;11.45;;
36351;SDS011;22382;44.768;17.206;2023-01-09T02:14:58;20.17;;;12.82;;
36351;SDS011;22382;44.768;17.206;2023-01-09T02:31:27;22.25;;;12.07;;
36351;SDS011;22382;44.768;17.206;2023-01-09T02:34:02;24.48;;;12.02;;
36351;SDS011;22382;44.768;17.206;2023-01-09T02:36:51;22.73;;;12.57;;
36351;SDS011;22382;44.768;17.206;2023-01-09T02:39:32;18.90;;;11.40;;
36351;SDS011;22382;44.768;17.206;2023-01-09T02:42:28;21.13;;;11.63;;
36351;SDS011;22382;44.768;17.206;2023-01-09T02:44:56;18.40;;;11.40;;
36351;SDS011;22382;44.768;17.206;2023-01-09T02:49:55;16.08;;;9.32;;
36351;SDS011;22382;44.768;17.206;2023-01-09T02:52:34;17.85;;;10.25;;
36351;SDS011;22382;44.768;17.206;2023-01-09T02:55:18;17.98;;;10.45;;
36351;SDS011;22382;44.768;17.206;2023-01-09T03:06:17;21.65;;;12.18;;
36351;SDS011;22382;44.768;17.206;2023-01-09T03:09:13;24.60;;;14.48;;
36351;SDS011;22382;44.768;17.206;2023-01-09T03:11:46;23.80;;;13.75;;
36351;SDS011;22382;44.768;17.206;2023-01-09T03:14:19;28.17;;;15.77;;
36351;SDS011;22382;44.768;17.206;2023-01-09T03:16:51;23.42;;;13.00;;
36351;SDS011;22382;44.768;17.206;2023-01-09T03:19:21;25.00;;;15.00;;
36351;SDS011;22382;44.768;17.206;2023-01-09T03:21:52;26.13;;;14.93;;
36351;SDS011;22382;44.768;17.206;2023-01-09T03:24:21;29.23;;;15.63;;
36351;SDS011;22382;44.768;17.206;2023-01-09T03:26:48;26.65;;;15.95;;
36351;SDS011;22382;44.768;17.206;2023-01-09T03:29:16;30.20;;;17.00;;
36351;SDS011;22382;44.768;17.206;2023-01-09T03:31:43;27.73;;;15.95;;
36351;SDS011;22382;44.768;17.206;2023-01-09T03:34:10;25.60;;;14.85;;
36351;SDS011;22382;44.768;17.206;2023-01-09T03:36:37;38.78;;;20.10;;
36351;SDS011;22382;44.768;17.206;2023-01-09T03:39:04;49.03;;;24.88;;
36351;SDS011;22382;44.768;17.206;2023-01-09T03:41:31;61.85;;;31.40;;
36351;SDS011;22382;44.768;17.206;2023-01-09T03:43:58;60.58;;;29.77;;
36351;SDS011;22382;44.768;17.206;2023-01-09T03:46:25;46.03;;;25.23;;
36351;SDS011;22382;44.768;17.206;2023-01-09T03:48:52;42.10;;;21.88;;
36351;SDS011;22382;44.768;17.206;2023-01-09T03:51:19;25.20;;;13.73;;
36351;SDS011;22382;44.768;17.206;2023-01-09T03:53:46;34.45;;;18.13;;
36351;SDS011;22382;44.768;17.206;2023-01-09T03:56:13;41.50;;;22.02;;
36351;SDS011;22382;44.768;17.206;2023-01-09T03:58:40;17.85;;;9.75;;
36351;SDS011;22382;44.768;17.206;2023-01-09T04:01:07;24.90;;;12.55;;
36351;SDS011;22382;44.768;17.206;2023-01-09T04:03:38;20.95;;;11.95;;
36351;SDS011;22382;44.768;17.206;2023-01-09T04:06:06;12.60;;;7.82;;
36351;SDS011;22382;44.768;17.206;2023-01-09T04:08:33;15.85;;;9.93;;
36351;SDS011;22382;44.768;17.206;2023-01-09T04:11:00;17.02;;;9.40;;
36351;SDS011;22382;44.768;17.206;2023-01-09T04:13:27;7.05;;;4.15;;
36351;SDS011;22382;44.768;17.206;2023-01-09T04:15:54;12.32;;;6.95;;
36351;SDS011;22382;44.768;17.206;2023-01-09T04:18:21;8.48;;;3.10;;
36351;SDS011;22382;44.768;17.206;2023-01-09T04:20:48;4.45;;;1.55;;
36351;SDS011;22382;44.768;17.206;2023-01-09T04:23:16;3.00;;;1.13;;
36351;SDS011;22382;44.768;17.206;2023-01-09T04:25:43;3.20;;;1.00;;
36351;SDS011;22382;44.768;17.206;2023-01-09T04:28:11;3.28;;;0.90;;
36351;SDS011;22382;44.768;17.206;2023-01-09T04:30:38;1.90;;;1.02;;
36351;SDS011;22382;44.768;17.206;2023-01-09T04:33:05;4.72;;;0.80;;
36351;SDS011;22382;44.768;17.206;2023-01-09T04:35:32;2.10;;;0.85;;
36351;SDS011;22382;44.768;17.206;2023-01-09T04:37:59;1.40;;;0.63;;
36351;SDS011;22382;44.768;17.206;2023-01-09T04:40:26;0.95;;;0.65;;
36351;SDS011;22382;44.768;17.206;2023-01-09T04:42:53;0.95;;;0.70;;
36351;SDS011;22382;44.768;17.206;2023-01-09T04:45:20;1.40;;;0.63;;
36351;SDS011;22382;44.768;17.206;2023-01-09T04:47:47;3.72;;;0.70;;
36351;SDS011;22382;44.768;17.206;2023-01-09T04:50:14;2.35;;;0.80;;
36351;SDS011;22382;44.768;17.206;2023-01-09T04:52:42;1.88;;;0.98;;
36351;SDS011;22382;44.768;17.206;2023-01-09T04:55:09;1.85;;;0.77;;
36351;SDS011;22382;44.768;17.206;2023-01-09T04:57:36;1.55;;;0.73;;
36351;SDS011;22382;44.768;17.206;2023-01-09T05:00:03;1.35;;;0.60;;
36351;SDS011;22382;44.768;17.206;2023-01-09T05:02:35;1.80;;;0.65;;
36351;SDS011;22382;44.768;17.206;2023-01-09T05:05:04;1.33;;;0.63;;
36351;SDS011;22382;44.768;17.206;2023-01-09T05:07:31;1.67;;;0.70;;
36351;SDS011;22382;44.768;17.206;2023-01-09T05:09:59;1.85;;;0.80;;
36351;SDS011;22382;44.768;17.206;2023-01-09T05:12:27;0.95;;;0.50;;
36351;SDS011;22382;44.768;17.206;2023-01-09T05:14:54;1.75;;;0.57;;
36351;SDS011;22382;44.768;17.206;2023-01-09T05:17:23;0.77;;;0.30;;
36351;SDS011;22382;44.768;17.206;2023-01-09T05:19:50;1.95;;;0.55;;
36351;SDS011;22382;44.768;17.206;2023-01-09T05:22:17;0.70;;;0.52;;
36351;SDS011;22382;44.768;17.206;2023-01-09T05:24:44;1.90;;;1.30;;
36351;SDS011;22382;44.768;17.206;2023-01-09T05:27:11;1.40;;;0.57;;
36351;SDS011;22382;44.768;17.206;2023-01-09T05:29:38;0.75;;;0.30;;
36351;SDS011;22382;44.768;17.206;2023-01-09T05:32:05;0.73;;;0.40;;
36351;SDS011;22382;44.768;17.206;2023-01-09T05:34:32;2.58;;;0.35;;
36351;SDS011;22382;44.768;17.206;2023-01-09T05:37:00;0.68;;;0.30;;
36351;SDS011;22382;44.768;17.206;2023-01-09T05:39:27;0.77;;;0.40;;
36351;SDS011;22382;44.768;17.206;2023-01-09T05:41:54;0.98;;;0.30;;
36351;SDS011;22382;44.768;17.206;2023-01-09T05:44:21;0.55;;;0.30;;
36351;SDS011;22382;44.768;17.206;2023-01-09T05:46:48;1.52;;;0.35;;
36351;SDS011;22382;44.768;17.206;2023-01-09T05:49:15;0.82;;;0.20;;
36351;SDS011;22382;44.768;17.206;2023-01-09T05:51:42;2.08;;;0.30;;
36351;SDS011;22382;44.768;17.206;2023-01-09T05:54:09;0.57;;;0.22;;
36351;SDS011;22382;44.768;17.206;2023-01-09T05:56:36;0.40;;;0.20;;
36351;SDS011;22382;44.768;17.206;2023-01-09T05:59:03;0.65;;;0.30;;
36351;SDS011;22382;44.768;17.206;2023-01-09T06:01:30;2.30;;;0.32;;
36351;SDS011;22382;44.768;17.206;2023-01-09T06:03:57;0.45;;;0.28;;
36351;SDS011;22382;44.768;17.206;2023-01-09T06:06:24;0.32;;;0.30;;
36351;SDS011;22382;44.768;17.206;2023-01-09T06:08:52;0.30;;;0.25;;
36351;SDS011;22382;44.768;17.206;2023-01-09T06:11:19;0.90;;;0.45;;
36351;SDS011;22382;44.768;17.206;2023-01-09T06:13:46;0.50;;;0.30;;
36351;SDS011;22382;44.768;17.206;2023-01-09T06:16:13;1.65;;;0.40;;
36351;SDS011;22382;44.768;17.206;2023-01-09T06:18:40;2.90;;;0.28;;
36351;SDS011;22382;44.768;17.206;2023-01-09T06:21:07;0.90;;;0.38;;
36351;SDS011;22382;44.768;17.206;2023-01-09T06:23:34;2.90;;;0.50;;
36351;SDS011;22382;44.768;17.206;2023-01-09T06:26:01;1.63;;;0.55;;
36351;SDS011;22382;44.768;17.206;2023-01-09T06:28:28;2.08;;;0.60;;
36351;SDS011;22382;44.768;17.206;2023-01-09T06:30:55;0.30;;;0.30;;
36351;SDS011;22382;44.768;17.206;2023-01-09T06:33:23;0.75;;;0.20;;
36351;SDS011;22382;44.768;17.206;2023-01-09T06:35:50;0.63;;;0.20;;
36351;SDS011;22382;44.768;17.206;2023-01-09T06:38:17;0.70;;;0.30;;
36351;SDS011;22382;44.768;17.206;2023-01-09T06:40:44;0.80;;;0.17;;
36351;SDS011;22382;44.768;17.206;2023-01-09T06:43:11;0.82;;;0.20;;
36351;SDS011;22382;44.768;17.206;2023-01-09T06:45:38;0.85;;;0.25;;
36351;SDS011;22382;44.768;17.206;2023-01-09T06:48:07;1.33;;;0.52;;
36351;SDS011;22382;44.768;17.206;2023-01-09T06:50:34;1.17;;;0.50;;
36351;SDS011;22382;44.768;17.206;2023-01-09T06:53:01;1.08;;;0.50;;
36351;SDS011;22382;44.768;17.206;2023-01-09T06:55:28;0.85;;;0.40;;
36351;SDS011;22382;44.768;17.206;2023-01-09T06:57:55;0.63;;;0.20;;
36351;SDS011;22382;44.768;17.206;2023-01-09T07:00:22;0.68;;;0.25;;
36351;SDS011;22382;44.768;17.206;2023-01-09T07:02:50;0.90;;;0.40;;
36351;SDS011;22382;44.768;17.206;2023-01-09T07:05:17;0.65;;;0.38;;
36351;SDS011;22382;44.768;17.206;2023-01-09T07:07:44;0.75;;;0.40;;
36351;SDS011;22382;44.768;17.206;2023-01-09T07:10:11;1.58;;;0.60;;
36351;SDS011;22382;44.768;17.206;2023-01-09T07:12:39;0.77;;;0.45;;
36351;SDS011;22382;44.768;17.206;2023-01-09T07:15:06;0.57;;;0.30;;
36351;SDS011;22382;44.768;17.206;2023-01-09T07:17:34;0.30;;;0.22;;
36351;SDS011;22382;44.768;17.206;2023-01-09T07:20:01;1.65;;;0.68;;
36351;SDS011;22382;44.768;17.206;2023-01-09T07:22:28;1.70;;;0.80;;
36351;SDS011;22382;44.768;17.206;2023-01-09T07:24:56;1.45;;;1.00;;
36351;SDS011;22382;44.768;17.206;2023-01-09T07:27:23;1.75;;;0.98;;
36351;SDS011;22382;44.768;17.206;2023-01-09T07:29:50;0.90;;;0.50;;
36351;SDS011;22382;44.768;17.206;2023-01-09T07:32:18;0.25;;;0.20;;
36351;SDS011;22382;44.768;17.206;2023-01-09T07:34:45;0.30;;;0.30;;
36351;SDS011;22382;44.768;17.206;2023-01-09T07:37:14;0.77;;;0.43;;
36351;SDS011;22382;44.768;17.206;2023-01-09T07:39:41;0.68;;;0.40;;
36351;SDS011;22382;44.768;17.206;2023-01-09T07:42:09;0.30;;;0.28;;
36351;SDS011;22382;44.768;17.206;2023-01-09T07:44:36;0.30;;;0.30;;
36351;SDS011;22382;44.768;17.206;2023-01-09T07:47:04;0.90;;;0.40;;
36351;SDS011;22382;44.768;17.206;2023-01-09T07:49:31;0.50;;;0.40;;
36351;SDS011;22382;44.768;17.206;2023-01-09T07:51:58;0.70;;;0.40;;
36351;SDS011;22382;44.768;17.206;2023-01-09T07:54:25;2.38;;;1.38;;
36351;SDS011;22382;44.768;17.206;2023-01-09T07:56:52;0.70;;;0.30;;
36351;SDS011;22382;44.768;17.206;2023-01-09T07:59:20;2.47;;;0.47;;
36351;SDS011;22382;44.768;17.206;2023-01-09T08:01:47;1.02;;;0.70;;
36351;SDS011;22382;44.768;17.206;2023-01-09T08:04:14;1.05;;;0.73;;
36351;SDS011;22382;44.768;17.206;2023-01-09T08:06:41;0.88;;;0.50;;
36351;SDS011;22382;44.768;17.206;2023-01-09T08:09:08;1.00;;;0.52;;
36351;SDS011;22382;44.768;17.206;2023-01-09T08:11:35;2.35;;;1.60;;
36351;SDS011;22382;44.768;17.206;2023-01-09T08:14:02;1.35;;;0.98;;
36351;SDS011;22382;44.768;17.206;2023-01-09T08:16:30;1.98;;;0.90;;
36351;SDS011;22382;44.768;17.206;2023-01-09T08:18:57;1.33;;;0.73;;
36351;SDS011;22382;44.768;17.206;2023-01-09T08:21:24;0.80;;;0.40;;
36351;SDS011;22382;44.768;17.206;2023-01-09T08:23:51;1.02;;;0.38;;
36351;SDS011;22382;44.768;17.206;2023-01-09T08:26:18;1.00;;;0.60;;
36351;SDS011;22382;44.768;17.206;2023-01-09T08:28:45;1.05;;;0.52;;
36351;SDS011;22382;44.768;17.206;2023-01-09T08:31:14;1.77;;;0.45;;
36351;SDS011;22382;44.768;17.206;2023-01-09T08:33:42;1.33;;;0.50;;
36351;SDS011;22382;44.768;17.206;2023-01-09T08:36:09;0.95;;;0.40;;
36351;SDS011;22382;44.768;17.206;2023-01-09T08:38:36;1.83;;;0.40;;
36351;SDS011;22382;44.768;17.206;2023-01-09T08:41:03;0.82;;;0.30;;
36351;SDS011;22382;44.768;17.206;2023-01-09T08:43:50;0.45;;;0.10;;
36351;SDS011;22382;44.768;17.206;2023-01-09T08:46:36;0.95;;;0.40;;
36351;SDS011;22382;44.768;17.206;2023-01-09T08:49:21;1.27;;;0.75;;
36351;SDS011;22382;44.768;17.206;2023-01-09T08:51:48;1.45;;;0.57;;
36351;SDS011;22382;44.768;17.206;2023-01-09T08:54:15;1.67;;;0.73;;
36351;SDS011;22382;44.768;17.206;2023-01-09T08:56:42;1.50;;;0.80;;
36351;SDS011;22382;44.768;17.206;2023-01-09T08:59:09;2.95;;;0.77;;
36351;SDS011;22382;44.768;17.206;2023-01-09T09:01:37;2.00;;;0.50;;
36351;SDS011;22382;44.768;17.206;2023-01-09T09:04:04;2.00;;;0.68;;
36351;SDS011;22382;44.768;17.206;2023-01-09T09:06:31;1.27;;;0.80;;
36351;SDS011;22382;44.768;17.206;2023-01-09T09:08:59;0.70;;;0.40;;
36351;SDS011;22382;44.768;17.206;2023-01-09T09:11:32;0.88;;;0.57;;
36351;SDS011;22382;44.768;17.206;2023-01-09T09:14:03;1.27;;;0.60;;
36351;SDS011;22382;44.768;17.206;2023-01-09T09:17:03;0.70;;;0.38;;
36351;SDS011;22382;44.768;17.206;2023-01-09T09:19:30;1.20;;;0.75;;
36351;SDS011;22382;44.768;17.206;2023-01-09T09:21:57;1.20;;;0.47;;
36351;SDS011;22382;44.768;17.206;2023-01-09T09:24:24;0.68;;;0.40;;
36351;SDS011;22382;44.768;17.206;2023-01-09T09:26:51;1.88;;;0.88;;
36351;SDS011;22382;44.768;17.206;2023-01-09T09:33:01;0.70;;;0.40;;
36351;SDS011;22382;44.768;17.206;2023-01-09T09:35:30;1.48;;;0.93;;
36351;SDS011;22382;44.768;17.206;2023-01-09T09:37:59;1.00;;;0.50;;
36351;SDS011;22382;44.768;17.206;2023-01-09T09:52:25;1.45;;;0.73;;
36351;SDS011;22382;44.768;17.206;2023-01-09T09:54:59;0.98;;;0.57;;
36351;SDS011;22382;44.768;17.206;2023-01-09T09:57:31;1.08;;;0.77;;
36351;SDS011;22382;44.768;17.206;2023-01-09T10:00:02;0.73;;;0.22;;
36351;SDS011;22382;44.768;17.206;2023-01-09T10:05:15;0.68;;;0.40;;
36351;SDS011;22382;44.768;17.206;2023-01-09T10:07:56;1.02;;;0.50;;
36351;SDS011;22382;44.768;17.206;2023-01-09T10:10:51;0.70;;;0.40;;
36351;SDS011;22382;44.768;17.206;2023-01-09T10:13:21;2.90;;;0.50;;
36351;SDS011;22382;44.768;17.206;2023-01-09T10:22:04;0.95;;;0.40;;
36351;SDS011;22382;44.768;17.206;2023-01-09T10:24:33;2.25;;;0.30;;
36351;SDS011;22382;44.768;17.206;2023-01-09T10:30:10;0.38;;;0.25;;
36351;SDS011;22382;44.768;17.206;2023-01-09T10:35:30;1.10;;;0.47;;
36351;SDS011;22382;44.768;17.206;2023-01-09T10:38:14;1.70;;;0.30;;
36351;SDS011;22382;44.768;17.206;2023-01-09T10:40:47;1.65;;;0.65;;
36351;SDS011;22382;44.768;17.206;2023-01-09T10:46:23;0.50;;;0.20;;
36351;SDS011;22382;44.768;17.206;2023-01-09T10:48:54;3.25;;;0.68;;
36351;SDS011;22382;44.768;17.206;2023-01-09T10:51:33;0.65;;;0.30;;
36351;SDS011;22382;44.768;17.206;2023-01-09T10:54:16;2.85;;;0.40;;
36351;SDS011;22382;44.768;17.206;2023-01-09T10:56:47;1.63;;;0.40;;
36351;SDS011;22382;44.768;17.206;2023-01-09T10:59:26;1.52;;;0.52;;
36351;SDS011;22382;44.768;17.206;2023-01-09T11:01:53;0.95;;;0.40;;
36351;SDS011;22382;44.768;17.206;2023-01-09T11:04:24;1.52;;;0.70;;
36351;SDS011;22382;44.768;17.206;2023-01-09T11:06:55;3.75;;;1.20;;
36351;SDS011;22382;44.768;17.206;2023-01-09T11:12:26;6.85;;;3.15;;
36351;SDS011;22382;44.768;17.206;2023-01-09T11:14:54;9.13;;;4.55;;
36351;SDS011;22382;44.768;17.206;2023-01-09T11:17:25;21.63;;;8.82;;
36351;SDS011;22382;44.768;17.206;2023-01-09T11:19:59;6.70;;;2.47;;
36351;SDS011;22382;44.768;17.206;2023-01-09T11:22:33;7.13;;;2.85;;
36351;SDS011;22382;44.768;17.206;2023-01-09T11:25:18;7.75;;;3.10;;
36351;SDS011;22382;44.768;17.206;2023-01-09T11:33:46;13.43;;;6.22;;
36351;SDS011;22382;44.768;17.206;2023-01-09T11:36:15;23.10;;;8.80;;
36351;SDS011;22382;44.768;17.206;2023-01-09T11:38:56;6.10;;;2.38;;
36351;SDS011;22382;44.768;17.206;2023-01-09T11:41:28;2.33;;;0.60;;
36351;SDS011;22382;44.768;17.206;2023-01-09T11:44:01;2.40;;;1.08;;
36351;SDS011;22382;44.768;17.206;2023-01-09T11:46:37;2.10;;;0.88;;
36351;SDS011;22382;44.768;17.206;2023-01-09T11:51:40;1.38;;;0.80;;
36351;SDS011;22382;44.768;17.206;2023-01-09T11:54:24;3.65;;;1.70;;
36351;SDS011;22382;44.768;17.206;2023-01-09T11:56:54;3.67;;;1.17;;
36351;SDS011;22382;44.768;17.206;2023-01-09T11:59:26;2.47;;;1.27;;
36351;SDS011;22382;44.768;17.206;2023-01-09T12:07:36;2.90;;;1.13;;
36351;SDS011;22382;44.768;17.206;2023-01-09T12:10:28;1.40;;;0.85;;
36351;SDS011;22382;44.768;17.206;2023-01-09T12:23:54;3.83;;;0.98;;
36351;SDS011;22382;44.768;17.206;2023-01-09T12:26:32;2.85;;;2.03;;
36351;SDS011;22382;44.768;17.206;2023-01-09T12:29:14;2.10;;;1.00;;
36351;SDS011;22382;44.768;17.206;2023-01-09T12:31:59;2.50;;;0.82;;
36351;SDS011;22382;44.768;17.206;2023-01-09T12:43:06;1.88;;;0.90;;
36351;SDS011;22382;44.768;17.206;2023-01-09T12:45:51;1.30;;;0.60;;
36351;SDS011;22382;44.768;17.206;2023-01-09T12:54:50;1.45;;;0.90;;
36351;SDS011;22382;44.768;17.206;2023-01-09T12:56:56;1.27;;;0.60;;
36351;SDS011;22382;44.768;17.206;2023-01-09T12:59:36;1.73;;;0.80;;
36351;SDS011;22382;44.768;17.206;2023-01-09T13:02:40;1.42;;;0.90;;
36351;SDS011;22382;44.768;17.206;2023-01-09T13:05:36;1.95;;;0.60;;
36351;SDS011;22382;44.768;17.206;2023-01-09T13:08:11;2.80;;;0.52;;
36351;SDS011;22382;44.768;17.206;2023-01-09T13:10:52;1.55;;;0.60;;
36351;SDS011;22382;44.768;17.206;2023-01-09T13:16:17;1.08;;;0.40;;
36351;SDS011;22382;44.768;17.206;2023-01-09T13:18:51;2.25;;;0.68;;
36351;SDS011;22382;44.768;17.206;2023-01-09T13:21:26;1.00;;;0.50;;
36351;SDS011;22382;44.768;17.206;2023-01-09T13:26:36;4.18;;;0.98;;
36351;SDS011;22382;44.768;17.206;2023-01-09T13:34:17;1.77;;;1.00;;
36351;SDS011;22382;44.768;17.206;2023-01-09T13:36:51;3.15;;;1.90;;
36351;SDS011;22382;44.768;17.206;2023-01-09T13:39:28;10.32;;;3.97;;
36351;SDS011;22382;44.768;17.206;2023-01-09T13:44:54;30.67;;;25.13;;
36351;SDS011;22382;44.768;17.206;2023-01-09T13:47:33;120.38;;;76.88;;
36351;SDS011;22382;44.768;17.206;2023-01-09T13:50:04;149.95;;;103.38;;
36351;SDS011;22382;44.768;17.206;2023-01-09T13:52:48;179.57;;;124.97;;
36351;SDS011;22382;44.768;17.206;2023-01-09T14:03:23;25.05;;;16.45;;
36351;SDS011;22382;44.768;17.206;2023-01-09T14:08:28;7.13;;;3.92;;
36351;SDS011;22382;44.768;17.206;2023-01-09T14:10:59;7.85;;;5.22;;
36351;SDS011;22382;44.768;17.206;2023-01-09T14:13:31;9.82;;;6.22;;
36351;SDS011;22382;44.768;17.206;2023-01-09T14:16:14;6.82;;;4.40;;
36351;SDS011;22382;44.768;17.206;2023-01-09T14:18:53;20.73;;;13.82;;
36351;SDS011;22382;44.768;17.206;2023-01-09T14:21:48;14.07;;;10.20;;
36351;SDS011;22382;44.768;17.206;2023-01-09T14:24:20;16.15;;;10.07;;
36351;SDS011;22382;44.768;17.206;2023-01-09T14:26:54;3.53;;;1.70;;
36351;SDS011;22382;44.768;17.206;2023-01-09T14:34:53;6.35;;;3.63;;
36351;SDS011;22382;44.768;17.206;2023-01-09T14:37:33;16.88;;;10.73;;
36351;SDS011;22382;44.768;17.206;2023-01-09T14:40:14;7.35;;;4.00;;
36351;SDS011;22382;44.768;17.206;2023-01-09T14:42:52;18.38;;;11.63;;
36351;SDS011;22382;44.768;17.206;2023-01-09T14:45:22;5.88;;;4.32;;
36351;SDS011;22382;44.768;17.206;2023-01-09T14:53:12;11.32;;;4.30;;
36351;SDS011;22382;44.768;17.206;2023-01-09T14:56:00;7.15;;;3.47;;
36351;SDS011;22382;44.768;17.206;2023-01-09T14:58:31;9.02;;;3.97;;
36351;SDS011;22382;44.768;17.206;2023-01-09T15:06:20;7.30;;;2.50;;
36351;SDS011;22382;44.768;17.206;2023-01-09T15:09:15;7.45;;;2.55;;
36351;SDS011;22382;44.768;17.206;2023-01-09T15:12:01;3.00;;;1.80;;
36351;SDS011;22382;44.768;17.206;2023-01-09T15:14:42;5.88;;;1.95;;
36351;SDS011;22382;44.768;17.206;2023-01-09T15:17:21;5.60;;;2.70;;
36351;SDS011;22382;44.768;17.206;2023-01-09T15:19:52;6.43;;;3.60;;
36351;SDS011;22382;44.768;17.206;2023-01-09T15:22:22;6.53;;;3.63;;
36351;SDS011;22382;44.768;17.206;2023-01-09T15:24:58;16.98;;;8.38;;
36351;SDS011;22382;44.768;17.206;2023-01-09T15:27:46;5.00;;;2.60;;
36351;SDS011;22382;44.768;17.206;2023-01-09T15:30:22;5.97;;;2.47;;
36351;SDS011;22382;44.768;17.206;2023-01-09T15:33:00;3.17;;;1.70;;
36351;SDS011;22382;44.768;17.206;2023-01-09T15:35:29;3.05;;;1.83;;
36351;SDS011;22382;44.768;17.206;2023-01-09T15:37:57;3.88;;;2.58;;
36351;SDS011;22382;44.768;17.206;2023-01-09T15:40:26;5.50;;;3.17;;
36351;SDS011;22382;44.768;17.206;2023-01-09T15:42:58;4.82;;;2.20;;
36351;SDS011;22382;44.768;17.206;2023-01-09T15:45:27;4.85;;;1.40;;
36351;SDS011;22382;44.768;17.206;2023-01-09T15:50:40;3.45;;;1.40;;
36351;SDS011;22382;44.768;17.206;2023-01-09T15:53:15;2.75;;;1.52;;
36351;SDS011;22382;44.768;17.206;2023-01-09T15:56:04;2.50;;;1.40;;
36351;SDS011;22382;44.768;17.206;2023-01-09T15:58:33;16.05;;;8.93;;
36351;SDS011;22382;44.768;17.206;2023-01-09T16:01:05;18.05;;;10.40;;
36351;SDS011;22382;44.768;17.206;2023-01-09T16:03:56;18.40;;;11.38;;
36351;SDS011;22382;44.768;17.206;2023-01-09T16:06:31;17.50;;;11.45;;
36351;SDS011;22382;44.768;17.206;2023-01-09T16:09:01;15.35;;;9.23;;
36351;SDS011;22382;44.768;17.206;2023-01-09T16:14:17;19.05;;;10.48;;
36351;SDS011;22382;44.768;17.206;2023-01-09T16:17:03;18.25;;;11.25;;
36351;SDS011;22382;44.768;17.206;2023-01-09T16:19:49;18.73;;;10.20;;
36351;SDS011;22382;44.768;17.206;2023-01-09T16:22:22;14.98;;;9.90;;
36351;SDS011;22382;44.768;17.206;2023-01-09T16:24:53;20.98;;;9.40;;
36351;SDS011;22382;44.768;17.206;2023-01-09T16:27:28;16.40;;;9.07;;
36351;SDS011;22382;44.768;17.206;2023-01-09T16:30:03;12.85;;;8.18;;
36351;SDS011;22382;44.768;17.206;2023-01-09T16:32:33;11.77;;;7.75;;
36351;SDS011;22382;44.768;17.206;2023-01-09T16:35:03;12.80;;;7.60;;
36351;SDS011;22382;44.768;17.206;2023-01-09T16:37:34;15.23;;;8.73;;
36351;SDS011;22382;44.768;17.206;2023-01-09T16:43:03;15.50;;;8.07;;
36351;SDS011;22382;44.768;17.206;2023-01-09T16:45:37;12.77;;;7.13;;
36351;SDS011;22382;44.768;17.206;2023-01-09T16:48:23;13.20;;;6.85;;
36351;SDS011;22382;44.768;17.206;2023-01-09T16:50:50;9.50;;;5.60;;
36351;SDS011;22382;44.768;17.206;2023-01-09T16:53:21;9.13;;;5.50;;
36351;SDS011;22382;44.768;17.206;2023-01-09T16:55:53;6.88;;;4.45;;
36351;SDS011;22382;44.768;17.206;2023-01-09T16:58:30;8.05;;;3.78;;
36351;SDS011;22382;44.768;17.206;2023-01-09T17:00:59;5.85;;;3.70;;
36351;SDS011;22382;44.768;17.206;2023-01-09T17:03:26;5.55;;;3.33;;
36351;SDS011;22382;44.768;17.206;2023-01-09T17:05:54;4.20;;;2.70;;
36351;SDS011;22382;44.768;17.206;2023-01-09T17:08:25;10.55;;;5.47;;
36351;SDS011;22382;44.768;17.206;2023-01-09T17:11:00;7.97;;;5.43;;
36351;SDS011;22382;44.768;17.206;2023-01-09T17:13:28;9.73;;;6.15;;
36351;SDS011;22382;44.768;17.206;2023-01-09T17:15:55;10.10;;;6.35;;
36351;SDS011;22382;44.768;17.206;2023-01-09T17:18:24;12.38;;;7.07;;
36351;SDS011;22382;44.768;17.206;2023-01-09T17:20:54;13.38;;;7.45;;
36351;SDS011;22382;44.768;17.206;2023-01-09T17:23:23;12.68;;;7.00;;
36351;SDS011;22382;44.768;17.206;2023-01-09T17:25:55;12.25;;;7.90;;